sensor_id;sensor_type;location;lat;lon;timestamp;temperature;humidity
14101;DHT22;7127;49.372;8.166;2022-08-20T00:00:08;26.70;43.50
14101;DHT22;7127;49.372;8.166;2022-08-20T00:02:40;26.70;43.70
14101;DHT22;7127;49.372;8.166;2022-08-20T00:05:07;26.70;43.60
14101;DHT22;7127;49.372;8.166;2022-08-20T00:07:35;26.70;43.60
14101;DHT22;7127;49.372;8.166;2022-08-20T00:10:03;26.70;43.60
14101;DHT22;7127;49.372;8.166;2022-08-20T00:12:31;26.70;43.60
14101;DHT22;7127;49.372;8.166;2022-08-20T00:15:00;26.70;43.60
14101;DHT22;7127;49.372;8.166;2022-08-20T00:17:28;26.70;43.60
14101;DHT22;7127;49.372;8.166;2022-08-20T00:19:58;26.70;43.60
14101;DHT22;7127;49.372;8.166;2022-08-20T00:22:25;26.70;43.80
14101;DHT22;7127;49.372;8.166;2022-08-20T00:24:52;26.70;43.80
14101;DHT22;7127;49.372;8.166;2022-08-20T00:27:19;26.60;43.90
14101;DHT22;7127;49.372;8.166;2022-08-20T00:29:46;26.60;44.10
14101;DHT22;7127;49.372;8.166;2022-08-20T00:32:15;26.60;44.20
14101;DHT22;7127;49.372;8.166;2022-08-20T00:34:42;26.60;44.40
14101;DHT22;7127;49.372;8.166;2022-08-20T00:37:09;26.60;45.10
14101;DHT22;7127;49.372;8.166;2022-08-20T00:39:36;26.50;44.40
14101;DHT22;7127;49.372;8.166;2022-08-20T00:42:03;26.60;44.70
14101;DHT22;7127;49.372;8.166;2022-08-20T00:44:31;26.50;44.60
14101;DHT22;7127;49.372;8.166;2022-08-20T00:46:58;26.50;44.70
14101;DHT22;7127;49.372;8.166;2022-08-20T00:49:28;26.50;44.80
14101;DHT22;7127;49.372;8.166;2022-08-20T00:51:59;26.50;44.80
14101;DHT22;7127;49.372;8.166;2022-08-20T00:54:31;26.50;44.90
14101;DHT22;7127;49.372;8.166;2022-08-20T00:57:02;26.50;45.00
14101;DHT22;7127;49.372;8.166;2022-08-20T00:59:33;26.50;45.00
14101;DHT22;7127;49.372;8.166;2022-08-20T01:02:03;26.50;45.30
14101;DHT22;7127;49.372;8.166;2022-08-20T01:04:34;26.50;45.50
14101;DHT22;7127;49.372;8.166;2022-08-20T01:07:03;26.50;45.50
14101;DHT22;7127;49.372;8.166;2022-08-20T01:09:31;26.50;45.30
14101;DHT22;7127;49.372;8.166;2022-08-20T01:11:58;26.50;45.50
14101;DHT22;7127;49.372;8.166;2022-08-20T01:14:25;26.50;45.50
14101;DHT22;7127;49.372;8.166;2022-08-20T01:16:59;26.50;45.50
14101;DHT22;7127;49.372;8.166;2022-08-20T01:19:30;26.50;45.50
14101;DHT22;7127;49.372;8.166;2022-08-20T01:22:01;26.60;45.50
14101;DHT22;7127;49.372;8.166;2022-08-20T01:24:56;26.60;45.70
14101;DHT22;7127;49.372;8.166;2022-08-20T01:27:27;26.60;45.70
14101;DHT22;7127;49.372;8.166;2022-08-20T01:29:56;26.60;46.00
14101;DHT22;7127;49.372;8.166;2022-08-20T01:32:23;26.60;45.80
14101;DHT22;7127;49.372;8.166;2022-08-20T01:34:50;26.60;45.70
14101;DHT22;7127;49.372;8.166;2022-08-20T01:37:17;26.60;45.70
14101;DHT22;7127;49.372;8.166;2022-08-20T01:39:44;26.60;46.20
14101;DHT22;7127;49.372;8.166;2022-08-20T01:42:16;26.50;46.20
14101;DHT22;7127;49.372;8.166;2022-08-20T01:44:47;26.50;46.40
14101;DHT22;7127;49.372;8.166;2022-08-20T01:47:18;26.50;46.40
14101;DHT22;7127;49.372;8.166;2022-08-20T01:49:49;26.50;46.50
14101;DHT22;7127;49.372;8.166;2022-08-20T01:52:23;26.40;46.40
14101;DHT22;7127;49.372;8.166;2022-08-20T01:54:52;26.40;46.90
14101;DHT22;7127;49.372;8.166;2022-08-20T01:57:23;26.40;46.90
14101;DHT22;7127;49.372;8.166;2022-08-20T01:59:53;26.30;46.90
14101;DHT22;7127;49.372;8.166;2022-08-20T02:02:21;26.30;46.90
14101;DHT22;7127;49.372;8.166;2022-08-20T02:04:48;26.30;47.20
14101;DHT22;7127;49.372;8.166;2022-08-20T02:07:17;26.30;46.90
14101;DHT22;7127;49.372;8.166;2022-08-20T02:09:45;26.20;47.30
14101;DHT22;7127;49.372;8.166;2022-08-20T02:12:12;26.20;47.30
14101;DHT22;7127;49.372;8.166;2022-08-20T02:14:41;26.20;47.40
14101;DHT22;7127;49.372;8.166;2022-08-20T02:17:11;26.20;47.50
14101;DHT22;7127;49.372;8.166;2022-08-20T02:19:41;26.20;47.40
14101;DHT22;7127;49.372;8.166;2022-08-20T02:22:15;26.20;47.40
14101;DHT22;7127;49.372;8.166;2022-08-20T02:24:42;26.20;47.50
14101;DHT22;7127;49.372;8.166;2022-08-20T02:27:09;26.20;47.40
14101;DHT22;7127;49.372;8.166;2022-08-20T02:29:37;26.20;47.90
14101;DHT22;7127;49.372;8.166;2022-08-20T02:32:04;26.20;47.70
14101;DHT22;7127;49.372;8.166;2022-08-20T02:34:34;26.20;47.60
14101;DHT22;7127;49.372;8.166;2022-08-20T02:37:02;26.20;47.80
14101;DHT22;7127;49.372;8.166;2022-08-20T02:39:29;26.20;47.70
14101;DHT22;7127;49.372;8.166;2022-08-20T02:41:57;26.20;47.70
14101;DHT22;7127;49.372;8.166;2022-08-20T02:44:24;26.30;47.90
14101;DHT22;7127;49.372;8.166;2022-08-20T02:46:51;26.20;47.60
14101;DHT22;7127;49.372;8.166;2022-08-20T02:49:18;26.20;47.60
14101;DHT22;7127;49.372;8.166;2022-08-20T02:51:47;26.20;47.70
14101;DHT22;7127;49.372;8.166;2022-08-20T02:54:14;26.30;47.60
14101;DHT22;7127;49.372;8.166;2022-08-20T02:56:42;26.30;47.60
14101;DHT22;7127;49.372;8.166;2022-08-20T02:59:09;26.30;47.50
14101;DHT22;7127;49.372;8.166;2022-08-20T03:01:36;26.30;47.60
14101;DHT22;7127;49.372;8.166;2022-08-20T03:04:03;26.30;47.50
14101;DHT22;7127;49.372;8.166;2022-08-20T03:06:31;26.30;47.50
14101;DHT22;7127;49.372;8.166;2022-08-20T03:09:00;26.30;47.50
14101;DHT22;7127;49.372;8.166;2022-08-20T03:11:30;26.30;47.50
14101;DHT22;7127;49.372;8.166;2022-08-20T03:13:57;26.30;47.50
14101;DHT22;7127;49.372;8.166;2022-08-20T03:16:24;26.30;47.50
14101;DHT22;7127;49.372;8.166;2022-08-20T03:18:51;26.30;47.50
14101;DHT22;7127;49.372;8.166;2022-08-20T03:21:18;26.40;47.50
14101;DHT22;7127;49.372;8.166;2022-08-20T03:23:45;26.40;47.50
14101;DHT22;7127;49.372;8.166;2022-08-20T03:26:14;26.40;47.50
14101;DHT22;7127;49.372;8.166;2022-08-20T03:28:42;26.30;47.50
14101;DHT22;7127;49.372;8.166;2022-08-20T03:31:09;26.40;47.60
14101;DHT22;7127;49.372;8.166;2022-08-20T03:33:36;26.30;47.50
14101;DHT22;7127;49.372;8.166;2022-08-20T03:36:04;26.40;47.60
14101;DHT22;7127;49.372;8.166;2022-08-20T03:38:32;26.30;47.60
14101;DHT22;7127;49.372;8.166;2022-08-20T03:40:59;26.30;47.60
14101;DHT22;7127;49.372;8.166;2022-08-20T03:43:28;26.30;47.60
14101;DHT22;7127;49.372;8.166;2022-08-20T03:45:55;26.30;47.60
14101;DHT22;7127;49.372;8.166;2022-08-20T03:48:22;26.30;47.60
14101;DHT22;7127;49.372;8.166;2022-08-20T03:50:49;26.30;47.60
14101;DHT22;7127;49.372;8.166;2022-08-20T03:53:18;26.30;47.70
14101;DHT22;7127;49.372;8.166;2022-08-20T03:55:47;26.30;47.70
14101;DHT22;7127;49.372;8.166;2022-08-20T03:58:15;26.30;47.70
14101;DHT22;7127;49.372;8.166;2022-08-20T04:00:47;26.30;47.80
14101;DHT22;7127;49.372;8.166;2022-08-20T04:03:15;26.40;47.80
14101;DHT22;7127;49.372;8.166;2022-08-20T04:05:43;26.40;47.80
14101;DHT22;7127;49.372;8.166;2022-08-20T04:08:13;26.40;47.80
14101;DHT22;7127;49.372;8.166;2022-08-20T04:10:42;26.40;47.80
14101;DHT22;7127;49.372;8.166;2022-08-20T04:13:11;26.40;47.80
14101;DHT22;7127;49.372;8.166;2022-08-20T04:15:39;26.30;47.80
14101;DHT22;7127;49.372;8.166;2022-08-20T04:18:09;26.40;48.00
14101;DHT22;7127;49.372;8.166;2022-08-20T04:20:39;26.40;48.20
14101;DHT22;7127;49.372;8.166;2022-08-20T04:23:06;26.40;48.20
14101;DHT22;7127;49.372;8.166;2022-08-20T04:25:35;26.40;48.50
14101;DHT22;7127;49.372;8.166;2022-08-20T04:28:07;26.40;48.50
14101;DHT22;7127;49.372;8.166;2022-08-20T04:30:34;26.40;48.60
14101;DHT22;7127;49.372;8.166;2022-08-20T04:33:02;26.40;48.80
14101;DHT22;7127;49.372;8.166;2022-08-20T04:35:31;26.30;48.70
14101;DHT22;7127;49.372;8.166;2022-08-20T04:37:59;26.30;48.90
14101;DHT22;7127;49.372;8.166;2022-08-20T04:40:27;26.30;48.90
14101;DHT22;7127;49.372;8.166;2022-08-20T04:43:12;26.30;48.90
14101;DHT22;7127;49.372;8.166;2022-08-20T04:45:39;26.30;48.90
14101;DHT22;7127;49.372;8.166;2022-08-20T04:48:06;26.30;49.00
14101;DHT22;7127;49.372;8.166;2022-08-20T04:50:36;26.30;48.90
14101;DHT22;7127;49.372;8.166;2022-08-20T04:53:04;26.20;48.90
14101;DHT22;7127;49.372;8.166;2022-08-20T04:55:32;26.20;48.80
14101;DHT22;7127;49.372;8.166;2022-08-20T04:58:02;26.20;48.80
14101;DHT22;7127;49.372;8.166;2022-08-20T05:00:30;26.20;48.90
14101;DHT22;7127;49.372;8.166;2022-08-20T05:02:57;26.10;48.80
14101;DHT22;7127;49.372;8.166;2022-08-20T05:05:24;26.20;48.90
14101;DHT22;7127;49.372;8.166;2022-08-20T05:07:54;26.20;48.90
14101;DHT22;7127;49.372;8.166;2022-08-20T05:10:22;26.10;48.90
14101;DHT22;7127;49.372;8.166;2022-08-20T05:12:50;26.10;48.90
14101;DHT22;7127;49.372;8.166;2022-08-20T05:15:17;26.10;49.00
14101;DHT22;7127;49.372;8.166;2022-08-20T05:17:44;26.20;48.90
14101;DHT22;7127;49.372;8.166;2022-08-20T05:20:15;26.10;48.90
14101;DHT22;7127;49.372;8.166;2022-08-20T05:22:43;26.10;49.10
14101;DHT22;7127;49.372;8.166;2022-08-20T05:25:11;26.10;49.30
14101;DHT22;7127;49.372;8.166;2022-08-20T05:27:38;26.10;49.10
14101;DHT22;7127;49.372;8.166;2022-08-20T05:30:09;26.10;49.20
14101;DHT22;7127;49.372;8.166;2022-08-20T05:32:37;26.10;49.40
14101;DHT22;7127;49.372;8.166;2022-08-20T05:35:06;26.00;49.20
14101;DHT22;7127;49.372;8.166;2022-08-20T05:37:35;26.00;49.30
14101;DHT22;7127;49.372;8.166;2022-08-20T05:40:07;26.00;49.30
14101;DHT22;7127;49.372;8.166;2022-08-20T05:42:37;26.00;49.50
14101;DHT22;7127;49.372;8.166;2022-08-20T05:45:04;26.00;49.40
14101;DHT22;7127;49.372;8.166;2022-08-20T05:47:32;26.00;49.70
14101;DHT22;7127;49.372;8.166;2022-08-20T05:49:59;26.00;49.80
14101;DHT22;7127;49.372;8.166;2022-08-20T05:52:27;26.00;49.80
14101;DHT22;7127;49.372;8.166;2022-08-20T05:54:54;26.00;49.60
14101;DHT22;7127;49.372;8.166;2022-08-20T05:57:21;26.00;49.60
14101;DHT22;7127;49.372;8.166;2022-08-20T05:59:50;25.90;49.60
14101;DHT22;7127;49.372;8.166;2022-08-20T06:02:17;26.00;49.90
14101;DHT22;7127;49.372;8.166;2022-08-20T06:05:02;26.00;49.80
14101;DHT22;7127;49.372;8.166;2022-08-20T06:07:29;26.00;49.70
14101;DHT22;7127;49.372;8.166;2022-08-20T06:09:56;26.00;49.80
14101;DHT22;7127;49.372;8.166;2022-08-20T06:12:23;26.00;49.80
14101;DHT22;7127;49.372;8.166;2022-08-20T06:14:51;26.00;49.90
14101;DHT22;7127;49.372;8.166;2022-08-20T06:17:18;26.10;49.90
14101;DHT22;7127;49.372;8.166;2022-08-20T06:19:46;26.10;49.90
14101;DHT22;7127;49.372;8.166;2022-08-20T06:22:14;26.10;49.80
14101;DHT22;7127;49.372;8.166;2022-08-20T06:24:41;26.10;49.90
14101;DHT22;7127;49.372;8.166;2022-08-20T06:27:12;26.10;49.80
14101;DHT22;7127;49.372;8.166;2022-08-20T06:29:40;26.10;49.90
14101;DHT22;7127;49.372;8.166;2022-08-20T06:32:09;26.10;49.90
14101;DHT22;7127;49.372;8.166;2022-08-20T06:34:36;26.10;49.90
14101;DHT22;7127;49.372;8.166;2022-08-20T06:37:13;26.10;49.90
14101;DHT22;7127;49.372;8.166;2022-08-20T06:39:40;26.10;50.00
14101;DHT22;7127;49.372;8.166;2022-08-20T06:42:08;26.10;49.90
14101;DHT22;7127;49.372;8.166;2022-08-20T06:44:36;26.10;49.90
14101;DHT22;7127;49.372;8.166;2022-08-20T06:47:04;26.20;49.90
14101;DHT22;7127;49.372;8.166;2022-08-20T06:49:35;26.20;50.00
14101;DHT22;7127;49.372;8.166;2022-08-20T06:52:03;26.20;50.00
14101;DHT22;7127;49.372;8.166;2022-08-20T06:54:30;26.30;50.00
14101;DHT22;7127;49.372;8.166;2022-08-20T06:56:58;26.30;50.00
14101;DHT22;7127;49.372;8.166;2022-08-20T06:59:25;26.30;50.20
14101;DHT22;7127;49.372;8.166;2022-08-20T07:01:52;26.30;50.10
14101;DHT22;7127;49.372;8.166;2022-08-20T07:04:21;26.30;50.20
14101;DHT22;7127;49.372;8.166;2022-08-20T07:06:49;26.40;50.30
14101;DHT22;7127;49.372;8.166;2022-08-20T07:09:17;26.30;50.40
14101;DHT22;7127;49.372;8.166;2022-08-20T07:11:44;26.40;50.40
14101;DHT22;7127;49.372;8.166;2022-08-20T07:14:12;26.40;50.30
14101;DHT22;7127;49.372;8.166;2022-08-20T07:16:40;26.40;50.50
14101;DHT22;7127;49.372;8.166;2022-08-20T07:19:08;26.40;50.30
14101;DHT22;7127;49.372;8.166;2022-08-20T07:21:36;26.40;50.30
14101;DHT22;7127;49.372;8.166;2022-08-20T07:24:05;26.50;50.40
14101;DHT22;7127;49.372;8.166;2022-08-20T07:26:34;26.50;50.40
14101;DHT22;7127;49.372;8.166;2022-08-20T07:29:01;26.60;50.50
14101;DHT22;7127;49.372;8.166;2022-08-20T07:31:28;26.60;50.40
14101;DHT22;7127;49.372;8.166;2022-08-20T07:34:12;26.70;50.30
14101;DHT22;7127;49.372;8.166;2022-08-20T07:36:42;26.80;50.30
14101;DHT22;7127;49.372;8.166;2022-08-20T07:39:10;26.90;50.30
14101;DHT22;7127;49.372;8.166;2022-08-20T07:41:38;26.90;50.20
14101;DHT22;7127;49.372;8.166;2022-08-20T07:44:05;27.00;50.10
14101;DHT22;7127;49.372;8.166;2022-08-20T07:46:32;27.00;50.00
14101;DHT22;7127;49.372;8.166;2022-08-20T07:48:59;27.10;49.90
14101;DHT22;7127;49.372;8.166;2022-08-20T07:51:28;27.10;49.70
14101;DHT22;7127;49.372;8.166;2022-08-20T07:53:55;27.20;49.70
14101;DHT22;7127;49.372;8.166;2022-08-20T07:56:26;27.20;49.70
14101;DHT22;7127;49.372;8.166;2022-08-20T07:58:54;27.30;49.50
14101;DHT22;7127;49.372;8.166;2022-08-20T08:01:27;27.30;49.50
14101;DHT22;7127;49.372;8.166;2022-08-20T08:03:55;27.40;49.50
14101;DHT22;7127;49.372;8.166;2022-08-20T08:06:23;27.40;49.40
14101;DHT22;7127;49.372;8.166;2022-08-20T08:08:51;27.40;49.40
14101;DHT22;7127;49.372;8.166;2022-08-20T08:11:18;27.50;49.30
14101;DHT22;7127;49.372;8.166;2022-08-20T08:13:47;27.50;49.20
14101;DHT22;7127;49.372;8.166;2022-08-20T08:16:14;27.50;49.10
14101;DHT22;7127;49.372;8.166;2022-08-20T08:18:44;27.60;49.00
14101;DHT22;7127;49.372;8.166;2022-08-20T08:21:13;27.60;48.90
14101;DHT22;7127;49.372;8.166;2022-08-20T08:23:41;27.60;48.90
14101;DHT22;7127;49.372;8.166;2022-08-20T08:26:09;27.70;48.90
14101;DHT22;7127;49.372;8.166;2022-08-20T08:28:36;27.70;48.90
14101;DHT22;7127;49.372;8.166;2022-08-20T08:31:05;27.70;48.80
14101;DHT22;7127;49.372;8.166;2022-08-20T08:33:33;27.70;48.80
14101;DHT22;7127;49.372;8.166;2022-08-20T08:36:01;27.80;48.70
14101;DHT22;7127;49.372;8.166;2022-08-20T08:38:31;27.80;48.70
14101;DHT22;7127;49.372;8.166;2022-08-20T08:41:10;27.80;48.70
14101;DHT22;7127;49.372;8.166;2022-08-20T08:43:39;27.90;48.60
14101;DHT22;7127;49.372;8.166;2022-08-20T08:46:10;27.90;48.60
14101;DHT22;7127;49.372;8.166;2022-08-20T08:48:40;28.00;48.60
14101;DHT22;7127;49.372;8.166;2022-08-20T08:51:10;28.00;48.50
14101;DHT22;7127;49.372;8.166;2022-08-20T08:53:41;28.10;48.50
14101;DHT22;7127;49.372;8.166;2022-08-20T08:56:11;28.20;48.30
14101;DHT22;7127;49.372;8.166;2022-08-20T08:58:39;28.20;48.10
14101;DHT22;7127;49.372;8.166;2022-08-20T09:01:12;28.30;47.90
14101;DHT22;7127;49.372;8.166;2022-08-20T09:03:41;28.40;47.60
14101;DHT22;7127;49.372;8.166;2022-08-20T09:06:13;28.40;47.60
14101;DHT22;7127;49.372;8.166;2022-08-20T09:08:46;28.50;47.40
14101;DHT22;7127;49.372;8.166;2022-08-20T09:11:15;28.60;47.50
14101;DHT22;7127;49.372;8.166;2022-08-20T09:13:42;28.70;47.30
14101;DHT22;7127;49.372;8.166;2022-08-20T09:16:11;28.70;46.00
14101;DHT22;7127;49.372;8.166;2022-08-20T09:18:39;28.80;46.00
14101;DHT22;7127;49.372;8.166;2022-08-20T09:21:07;28.80;45.50
14101;DHT22;7127;49.372;8.166;2022-08-20T09:23:35;28.80;45.30
14101;DHT22;7127;49.372;8.166;2022-08-20T09:26:02;28.80;45.20
14101;DHT22;7127;49.372;8.166;2022-08-20T09:28:29;28.90;45.30
14101;DHT22;7127;49.372;8.166;2022-08-20T09:30:56;28.90;45.20
14101;DHT22;7127;49.372;8.166;2022-08-20T09:33:25;29.00;45.40
14101;DHT22;7127;49.372;8.166;2022-08-20T09:35:52;29.00;45.20
14101;DHT22;7127;49.372;8.166;2022-08-20T09:38:19;29.10;45.50
14101;DHT22;7127;49.372;8.166;2022-08-20T09:40:46;29.20;45.40
14101;DHT22;7127;49.372;8.166;2022-08-20T09:43:13;29.30;45.40
14101;DHT22;7127;49.372;8.166;2022-08-20T09:45:41;29.40;45.30
14101;DHT22;7127;49.372;8.166;2022-08-20T09:48:08;29.40;45.20
14101;DHT22;7127;49.372;8.166;2022-08-20T09:50:41;29.50;45.10
14101;DHT22;7127;49.372;8.166;2022-08-20T09:53:10;29.60;44.70
14101;DHT22;7127;49.372;8.166;2022-08-20T09:55:39;29.70;44.60
14101;DHT22;7127;49.372;8.166;2022-08-20T09:58:10;29.70;44.60
14101;DHT22;7127;49.372;8.166;2022-08-20T10:00:38;29.80;44.30
14101;DHT22;7127;49.372;8.166;2022-08-20T10:03:06;29.80;44.40
14101;DHT22;7127;49.372;8.166;2022-08-20T10:05:32;29.90;44.20
14101;DHT22;7127;49.372;8.166;2022-08-20T10:08:04;30.00;44.00
14101;DHT22;7127;49.372;8.166;2022-08-20T10:10:31;30.00;43.60
14101;DHT22;7127;49.372;8.166;2022-08-20T10:12:58;30.00;43.60
14101;DHT22;7127;49.372;8.166;2022-08-20T10:15:25;30.10;43.30
14101;DHT22;7127;49.372;8.166;2022-08-20T10:17:52;30.10;43.30
14101;DHT22;7127;49.372;8.166;2022-08-20T10:20:22;30.10;43.20
14101;DHT22;7127;49.372;8.166;2022-08-20T10:22:49;30.20;43.30
14101;DHT22;7127;49.372;8.166;2022-08-20T10:25:18;30.20;43.00
14101;DHT22;7127;49.372;8.166;2022-08-20T10:27:45;30.20;42.80
14101;DHT22;7127;49.372;8.166;2022-08-20T10:30:12;30.20;42.90
14101;DHT22;7127;49.372;8.166;2022-08-20T10:32:40;30.20;42.60
14101;DHT22;7127;49.372;8.166;2022-08-20T10:35:07;30.20;42.20
14101;DHT22;7127;49.372;8.166;2022-08-20T10:37:35;30.20;42.20
14101;DHT22;7127;49.372;8.166;2022-08-20T10:40:03;30.20;42.00
14101;DHT22;7127;49.372;8.166;2022-08-20T10:42:32;30.20;41.70
14101;DHT22;7127;49.372;8.166;2022-08-20T10:44:59;30.30;42.00
14101;DHT22;7127;49.372;8.166;2022-08-20T10:47:28;30.30;42.10
14101;DHT22;7127;49.372;8.166;2022-08-20T10:49:59;30.40;42.20
14101;DHT22;7127;49.372;8.166;2022-08-20T10:52:27;30.40;41.90
14101;DHT22;7127;49.372;8.166;2022-08-20T10:54:55;30.40;41.60
14101;DHT22;7127;49.372;8.166;2022-08-20T10:57:24;30.50;41.50
14101;DHT22;7127;49.372;8.166;2022-08-20T10:59:55;30.60;41.40
14101;DHT22;7127;49.372;8.166;2022-08-20T11:02:22;30.60;41.50
14101;DHT22;7127;49.372;8.166;2022-08-20T11:04:50;30.60;40.60
14101;DHT22;7127;49.372;8.166;2022-08-20T11:07:20;30.60;40.00
14101;DHT22;7127;49.372;8.166;2022-08-20T11:09:50;30.60;40.00
14101;DHT22;7127;49.372;8.166;2022-08-20T11:12:19;30.60;39.20
14101;DHT22;7127;49.372;8.166;2022-08-20T11:14:47;30.50;39.30
14101;DHT22;7127;49.372;8.166;2022-08-20T11:17:19;30.50;39.40
14101;DHT22;7127;49.372;8.166;2022-08-20T11:19:47;30.50;39.50
14101;DHT22;7127;49.372;8.166;2022-08-20T11:22:14;30.40;39.40
14101;DHT22;7127;49.372;8.166;2022-08-20T11:24:41;30.40;39.60
14101;DHT22;7127;49.372;8.166;2022-08-20T11:27:09;30.30;39.70
14101;DHT22;7127;49.372;8.166;2022-08-20T11:34:44;30.20;39.90
14101;DHT22;7127;49.372;8.166;2022-08-20T11:37:12;30.20;39.70
14101;DHT22;7127;49.372;8.166;2022-08-20T11:39:39;30.20;39.90
14101;DHT22;7127;49.372;8.166;2022-08-20T11:42:07;30.20;38.90
14101;DHT22;7127;49.372;8.166;2022-08-20T11:44:34;30.20;38.60
14101;DHT22;7127;49.372;8.166;2022-08-20T11:47:02;30.20;38.60
14101;DHT22;7127;49.372;8.166;2022-08-20T11:49:31;30.10;38.80
14101;DHT22;7127;49.372;8.166;2022-08-20T11:52:00;30.10;38.90
14101;DHT22;7127;49.372;8.166;2022-08-20T11:54:27;30.10;38.90
14101;DHT22;7127;49.372;8.166;2022-08-20T11:56:56;30.10;38.90
14101;DHT22;7127;49.372;8.166;2022-08-20T11:59:24;30.10;38.80
14101;DHT22;7127;49.372;8.166;2022-08-20T12:01:51;30.20;38.80
14101;DHT22;7127;49.372;8.166;2022-08-20T12:04:18;30.10;37.80
14101;DHT22;7127;49.372;8.166;2022-08-20T12:06:45;30.20;37.60
14101;DHT22;7127;49.372;8.166;2022-08-20T12:09:14;30.20;37.40
14101;DHT22;7127;49.372;8.166;2022-08-20T12:11:41;30.20;35.80
14101;DHT22;7127;49.372;8.166;2022-08-20T12:14:09;30.20;35.90
14101;DHT22;7127;49.372;8.166;2022-08-20T12:16:36;30.20;36.10
14101;DHT22;7127;49.372;8.166;2022-08-20T12:19:03;30.30;36.40
14101;DHT22;7127;49.372;8.166;2022-08-20T12:21:30;30.30;36.40
14101;DHT22;7127;49.372;8.166;2022-08-20T12:23:57;30.30;35.30
14101;DHT22;7127;49.372;8.166;2022-08-20T12:26:25;30.40;35.60
14101;DHT22;7127;49.372;8.166;2022-08-20T12:28:52;30.40;34.80
14101;DHT22;7127;49.372;8.166;2022-08-20T12:31:20;30.40;34.80
14101;DHT22;7127;49.372;8.166;2022-08-20T12:33:47;30.30;34.40
14101;DHT22;7127;49.372;8.166;2022-08-20T12:36:14;30.40;34.20
14101;DHT22;7127;49.372;8.166;2022-08-20T12:38:41;30.40;34.60
14101;DHT22;7127;49.372;8.166;2022-08-20T12:41:08;30.40;34.30
14101;DHT22;7127;49.372;8.166;2022-08-20T12:43:36;30.40;34.40
14101;DHT22;7127;49.372;8.166;2022-08-20T12:46:03;30.50;34.20
14101;DHT22;7127;49.372;8.166;2022-08-20T12:48:30;30.50;34.20
14101;DHT22;7127;49.372;8.166;2022-08-20T12:50:57;30.50;34.30
14101;DHT22;7127;49.372;8.166;2022-08-20T12:53:24;30.60;33.40
14101;DHT22;7127;49.372;8.166;2022-08-20T12:55:51;30.60;31.90
14101;DHT22;7127;49.372;8.166;2022-08-20T12:58:18;30.60;32.10
14101;DHT22;7127;49.372;8.166;2022-08-20T13:00:46;30.60;32.50
14101;DHT22;7127;49.372;8.166;2022-08-20T13:03:13;30.60;31.70
14101;DHT22;7127;49.372;8.166;2022-08-20T13:05:42;30.60;32.30
14101;DHT22;7127;49.372;8.166;2022-08-20T13:08:10;30.60;32.20
14101;DHT22;7127;49.372;8.166;2022-08-20T13:10:41;30.70;32.20
14101;DHT22;7127;49.372;8.166;2022-08-20T13:13:10;30.70;31.80
14101;DHT22;7127;49.372;8.166;2022-08-20T13:15:37;30.70;31.80
14101;DHT22;7127;49.372;8.166;2022-08-20T13:18:06;30.70;31.30
14101;DHT22;7127;49.372;8.166;2022-08-20T13:20:35;30.70;31.50
14101;DHT22;7127;49.372;8.166;2022-08-20T13:23:04;30.70;31.80
14101;DHT22;7127;49.372;8.166;2022-08-20T13:25:31;30.70;31.90
14101;DHT22;7127;49.372;8.166;2022-08-20T13:28:02;30.80;32.00
14101;DHT22;7127;49.372;8.166;2022-08-20T13:30:30;30.80;30.50
14101;DHT22;7127;49.372;8.166;2022-08-20T13:32:58;30.80;30.20
14101;DHT22;7127;49.372;8.166;2022-08-20T13:35:26;30.80;30.30
14101;DHT22;7127;49.372;8.166;2022-08-20T13:37:53;30.80;30.10
14101;DHT22;7127;49.372;8.166;2022-08-20T13:40:20;30.90;29.70
14101;DHT22;7127;49.372;8.166;2022-08-20T13:42:47;30.90;30.00
14101;DHT22;7127;49.372;8.166;2022-08-20T13:45:14;30.90;29.70
14101;DHT22;7127;49.372;8.166;2022-08-20T13:47:42;30.90;29.90
14101;DHT22;7127;49.372;8.166;2022-08-20T13:50:13;30.90;29.90
14101;DHT22;7127;49.372;8.166;2022-08-20T13:52:43;30.90;29.70
14101;DHT22;7127;49.372;8.166;2022-08-20T13:55:13;30.80;29.90
14101;DHT22;7127;49.372;8.166;2022-08-20T13:57:41;31.00;30.00
14101;DHT22;7127;49.372;8.166;2022-08-20T14:00:10;31.00;29.70
14101;DHT22;7127;49.372;8.166;2022-08-20T14:02:38;31.00;28.80
14101;DHT22;7127;49.372;8.166;2022-08-20T14:05:06;31.00;28.90
14101;DHT22;7127;49.372;8.166;2022-08-20T14:07:34;31.00;29.00
14101;DHT22;7127;49.372;8.166;2022-08-20T14:10:05;31.00;28.90
14101;DHT22;7127;49.372;8.166;2022-08-20T14:12:33;31.00;28.50
14101;DHT22;7127;49.372;8.166;2022-08-20T14:15:00;31.10;28.80
14101;DHT22;7127;49.372;8.166;2022-08-20T14:17:29;31.10;28.70
14101;DHT22;7127;49.372;8.166;2022-08-20T14:19:58;31.10;28.60
14101;DHT22;7127;49.372;8.166;2022-08-20T14:22:26;31.10;28.60
14101;DHT22;7127;49.372;8.166;2022-08-20T14:24:53;31.10;28.50
14101;DHT22;7127;49.372;8.166;2022-08-20T14:27:23;31.10;28.40
14101;DHT22;7127;49.372;8.166;2022-08-20T14:29:50;31.20;28.60
14101;DHT22;7127;49.372;8.166;2022-08-20T14:32:17;31.10;28.20
14101;DHT22;7127;49.372;8.166;2022-08-20T14:34:45;31.20;27.90
14101;DHT22;7127;49.372;8.166;2022-08-20T14:37:15;31.20;26.90
14101;DHT22;7127;49.372;8.166;2022-08-20T14:39:45;31.10;27.30
14101;DHT22;7127;49.372;8.166;2022-08-20T14:42:12;31.10;26.90
14101;DHT22;7127;49.372;8.166;2022-08-20T14:44:41;31.10;26.30
14101;DHT22;7127;49.372;8.166;2022-08-20T14:47:13;31.10;26.00
14101;DHT22;7127;49.372;8.166;2022-08-20T14:49:41;31.10;25.90
14101;DHT22;7127;49.372;8.166;2022-08-20T14:52:09;31.10;26.30
14101;DHT22;7127;49.372;8.166;2022-08-20T14:54:36;31.00;26.30
14101;DHT22;7127;49.372;8.166;2022-08-20T14:57:04;31.00;26.50
14101;DHT22;7127;49.372;8.166;2022-08-20T14:59:32;31.00;26.30
14101;DHT22;7127;49.372;8.166;2022-08-20T15:02:00;31.00;26.10
14101;DHT22;7127;49.372;8.166;2022-08-20T15:04:27;31.00;26.30
14101;DHT22;7127;49.372;8.166;2022-08-20T15:06:55;31.00;26.50
14101;DHT22;7127;49.372;8.166;2022-08-20T15:09:22;31.10;26.50
14101;DHT22;7127;49.372;8.166;2022-08-20T15:11:49;31.10;26.90
14101;DHT22;7127;49.372;8.166;2022-08-20T15:14:17;31.10;26.70
14101;DHT22;7127;49.372;8.166;2022-08-20T15:16:44;31.10;26.80
14101;DHT22;7127;49.372;8.166;2022-08-20T15:19:13;31.10;26.60
14101;DHT22;7127;49.372;8.166;2022-08-20T15:21:40;31.20;26.40
14101;DHT22;7127;49.372;8.166;2022-08-20T15:24:08;31.20;26.70
14101;DHT22;7127;49.372;8.166;2022-08-20T15:26:35;31.20;26.60
14101;DHT22;7127;49.372;8.166;2022-08-20T15:29:02;31.20;26.50
14101;DHT22;7127;49.372;8.166;2022-08-20T15:31:30;31.20;26.60
14101;DHT22;7127;49.372;8.166;2022-08-20T15:33:57;31.30;26.90
14101;DHT22;7127;49.372;8.166;2022-08-20T15:36:25;31.30;26.80
14101;DHT22;7127;49.372;8.166;2022-08-20T15:38:52;31.30;26.90
14101;DHT22;7127;49.372;8.166;2022-08-20T15:41:20;31.30;26.60
14101;DHT22;7127;49.372;8.166;2022-08-20T15:43:47;31.30;26.70
14101;DHT22;7127;49.372;8.166;2022-08-20T15:46:14;31.30;26.70
14101;DHT22;7127;49.372;8.166;2022-08-20T15:48:45;31.30;26.80
14101;DHT22;7127;49.372;8.166;2022-08-20T15:51:27;31.30;26.80
14101;DHT22;7127;49.372;8.166;2022-08-20T15:54:00;31.40;26.90
14101;DHT22;7127;49.372;8.166;2022-08-20T15:56:47;31.30;26.60